Weather History for Gulf Shores, AL

Change the Weather History Date:

Sunday, April 28, 2013

  Actual Average (KPNS) Record (KPNS)
Temperature  
Mean Temperature 72 °F 70 °F  
Max Temperature 77 °F 79 °F 91 °F (1987)
Min Temperature 66 °F 61 °F 46 °F (1992)
Degree Days  
Heating Degree Days 0 0  
Month to date heating degree days 51  
Since 1 July heating degree days 1535  
Cooling Degree Days 6 5  
Month to date cooling degree days 90  
Year to date cooling degree days 137  
Growing Degree Days 22 (Base 50)    
Moisture  
Dew Point 66 °F    
Average Humidity 82    
Maximum Humidity 94    
Minimum Humidity 61    
Precipitation  
Precipitation 0.00 in 0.14 in 1.78 in (1950)
Month to date precipitation 4.07  
Year to date precipitation 19.57  
Sea Level Pressure  
Sea Level Pressure 30.03 in    
Wind  
Wind Speed 4 mph (SSE)    
Max Wind Speed 12 mph    
Max Gust Speed 17 mph    
Visibility 8 miles    
Events Fog    
T = Trace of Precipitation, MM = Missing Value Source: NWS Daily Summary

Daily Weather History Graph

Daily Weather History Graph

Search for Another Location

Airport:

Trip Planner

Search our weather history database for the weather conditions in past years. The results will help you decide how hot, cold, wet, or windy it might be!

Date:

Astronomy

Apr. 28, 2013 Rise Set
Actual Time 6:09 AM CDT 7:26 PM CDT
Civil Twilight 5:44 AM CDT 7:52 PM CDT
Nautical Twilight 5:14 AM CDT 8:22 PM CDT
Astronomical Twilight 4:43 AM CDT 8:53 PM CDT
Moon 10:49 PM CDT (4/28) 8:33 AM CDT (4/28)
Length of Visible Light 14h 07m
Length of Day
13h 16m
Waning Gibbous, 88% of the Moon is Illuminated
Apr 28
Waning Gibbous
May 2
Last Quarter
May 9
New
May 17
First Quarter
May 24
Full

Hourly Weather History & Observations

Time (CDT) Temp. Dew Point Humidity Pressure Visibility Wind Dir Wind Speed Gust Speed Precip Events Conditions
12:15 AM 71.6 °F 68.0 °F 88% 30.11 in 1.0 mi Calm Calm - N/A   Mist
12:35 AM 71.6 °F 68.0 °F 88% 30.10 in 3.0 mi South 3.5 mph - N/A   Mist
12:55 AM 69.8 °F 68.0 °F 94% 30.09 in 7.0 mi SSE 9.2 mph - N/A   Unknown
1:15 AM 69.8 °F 68.0 °F 94% 30.09 in 7.0 mi South 6.9 mph - N/A   Unknown
1:35 AM 69.8 °F 68.0 °F 94% 30.08 in 7.0 mi South 3.5 mph - N/A   Unknown
1:55 AM 69.8 °F 68.0 °F 94% 30.07 in 7.0 mi SSE 6.9 mph - N/A   Unknown
2:15 AM 69.8 °F 68.0 °F 94% 30.06 in 7.0 mi SSE 3.5 mph - N/A   Unknown
2:35 AM 69.8 °F 68.0 °F 94% 30.05 in 7.0 mi South 3.5 mph - N/A   Unknown
2:55 AM 71.6 °F 68.0 °F 88% 30.06 in 7.0 mi South 3.5 mph - N/A   Unknown
3:15 AM 69.8 °F 68.0 °F 94% 30.06 in 7.0 mi South 4.6 mph - N/A   Unknown
3:35 AM 69.8 °F 68.0 °F 94% 30.06 in 10.0 mi South 5.8 mph - N/A   Unknown
3:55 AM 69.8 °F 68.0 °F 94% 30.07 in 10.0 mi SSW 6.9 mph - N/A   Unknown
4:15 AM 69.8 °F 68.0 °F 94% 30.07 in 10.0 mi SSW 3.5 mph - N/A   Unknown
4:35 AM 69.8 °F 66.2 °F 88% 30.06 in 7.0 mi South 3.5 mph - N/A   Unknown
4:55 AM 69.8 °F 66.2 °F 88% 30.06 in 7.0 mi Calm Calm - N/A   Unknown
5:15 AM 69.8 °F 66.2 °F 88% 30.05 in 5.0 mi SSE 3.5 mph - N/A   Mist
5:35 AM 69.8 °F 66.2 °F 88% 30.05 in 5.0 mi Calm Calm - N/A   Mist
5:55 AM 68.0 °F 64.4 °F 88% 30.05 in 2.5 mi Calm Calm - N/A   Mist
6:15 AM 68.0 °F 64.4 °F 88% 30.05 in 0.2 mi Calm Calm - N/A Fog Fog
6:35 AM 66.2 °F 64.4 °F 94% 30.05 in 0.2 mi Calm Calm - N/A Fog Fog
6:55 AM 69.8 °F 68.0 °F 94% 30.07 in 2.5 mi Calm Calm - N/A   Mist
7:15 AM 69.8 °F 68.0 °F 94% 30.07 in 0.2 mi SSE 3.5 mph - N/A Fog Fog
7:35 AM 69.8 °F 68.0 °F 94% 30.07 in 0.5 mi South 4.6 mph - N/A Fog Fog
8:15 AM 69.8 °F 68.0 °F 94% 30.07 in 7.0 mi SSE 5.8 mph - N/A   Unknown
8:35 AM 69.8 °F 68.0 °F 94% 30.07 in 7.0 mi SSE 4.6 mph - N/A   Unknown
8:55 AM 71.6 °F 68.0 °F 88% 30.07 in 10.0 mi SSE 5.8 mph - N/A   Unknown
9:15 AM 71.6 °F 66.2 °F 83% 30.06 in 10.0 mi SSE 8.1 mph - N/A   Unknown
9:35 AM 71.6 °F 68.0 °F 88% 30.06 in 10.0 mi SE 6.9 mph - N/A   Unknown
9:55 AM 75.2 °F 66.2 °F 73% 30.06 in 10.0 mi SE 9.2 mph - N/A   Unknown
10:15 AM 75.2 °F 66.2 °F 73% 30.07 in 10.0 mi SE 9.2 mph - N/A   Unknown
10:35 AM 75.2 °F 68.0 °F 78% 30.07 in 10.0 mi SE 10.4 mph - N/A   Unknown
10:55 AM 75.2 °F 68.0 °F 78% 30.07 in 10.0 mi SE 9.2 mph 17.3 mph N/A   Unknown
11:15 AM 77.0 °F 66.2 °F 69% 30.07 in 10.0 mi South 11.5 mph - N/A   Unknown
11:35 AM 77.0 °F 64.4 °F 65% 30.07 in 10.0 mi SSE 10.4 mph 16.1 mph N/A   Unknown
11:55 AM 77.0 °F 62.6 °F 61% 30.06 in 10.0 mi SSE 9.2 mph - N/A   Unknown
12:15 PM 77.0 °F 62.6 °F 61% 30.06 in 10.0 mi SSE 10.4 mph - N/A   Unknown
12:35 PM 77.0 °F 64.4 °F 65% 30.05 in 10.0 mi South 10.4 mph - N/A   Unknown
12:55 PM 77.0 °F 64.4 °F 65% 30.05 in 10.0 mi SSE 10.4 mph - N/A   Unknown
1:15 PM 77.0 °F 64.4 °F 65% 30.05 in 10.0 mi SSE 10.4 mph - N/A   Unknown
1:35 PM 77.0 °F 64.4 °F 65% 30.04 in 10.0 mi SSE 8.1 mph - N/A   Unknown
2:15 PM 77.0 °F 64.4 °F 65% 30.04 in 10.0 mi SE 11.5 mph - N/A   Unknown
2:55 PM 75.2 °F 64.4 °F 69% 30.02 in 10.0 mi SSE 8.1 mph - N/A   Unknown
3:15 PM 75.2 °F 64.4 °F 69% 30.01 in 10.0 mi SSE 6.9 mph - N/A   Unknown
3:35 PM 77.0 °F 64.4 °F 65% 29.99 in 10.0 mi SSE 5.8 mph - N/A   Unknown
3:55 PM 77.0 °F 62.6 °F 61% 29.98 in 10.0 mi SSE 3.5 mph - N/A   Unknown
4:15 PM 77.0 °F 64.4 °F 65% 29.98 in 10.0 mi SSE 5.8 mph - N/A   Unknown
4:35 PM 75.2 °F 64.4 °F 69% 29.98 in 10.0 mi SSE 5.8 mph - N/A   Unknown
4:55 PM 75.2 °F 62.6 °F 65% 29.97 in 10.0 mi SSW 4.6 mph - N/A   Unknown
5:15 PM 75.2 °F 64.4 °F 69% 29.97 in 10.0 mi SSE 6.9 mph - N/A   Unknown
5:35 PM 73.4 °F 64.4 °F 73% 29.97 in 10.0 mi SSE 5.8 mph - N/A   Unknown
5:55 PM 73.4 °F 64.4 °F 73% 29.97 in 10.0 mi SE 5.8 mph - N/A   Unknown
6:15 PM 73.4 °F 66.2 °F 78% 29.98 in 10.0 mi SE 4.6 mph - N/A   Unknown
6:35 PM 71.6 °F 66.2 °F 83% 29.98 in 10.0 mi SSE 3.5 mph - N/A   Unknown
6:55 PM 71.6 °F 66.2 °F 83% 29.98 in 10.0 mi Calm Calm - N/A   Unknown
7:15 PM 71.6 °F 64.4 °F 78% 29.98 in 10.0 mi SE 3.5 mph - N/A   Unknown
7:35 PM 71.6 °F 64.4 °F 78% 29.98 in 10.0 mi SE 3.5 mph - N/A   Unknown
7:55 PM 69.8 °F 64.4 °F 83% 29.98 in 10.0 mi Calm Calm - N/A   Unknown
8:15 PM 69.8 °F 64.4 °F 83% 29.98 in 10.0 mi Calm Calm - N/A   Unknown
8:35 PM 69.8 °F 66.2 °F 88% 29.98 in 10.0 mi Calm Calm - N/A   Unknown
8:55 PM 69.8 °F 66.2 °F 88% 29.99 in 10.0 mi Calm Calm - N/A   Unknown
9:15 PM 69.8 °F 64.4 °F 83% 29.99 in 10.0 mi Calm Calm - N/A   Unknown
9:35 PM 69.8 °F 64.4 °F 83% 29.99 in 7.0 mi NNE 3.5 mph - N/A   Unknown
9:55 PM 68.0 °F 64.4 °F 88% 29.99 in 7.0 mi NNW 4.6 mph - N/A   Unknown
10:15 PM 68.0 °F 64.4 °F 88% 29.99 in 7.0 mi Calm Calm - N/A   Unknown
10:35 PM 68.0 °F 64.4 °F 88% 29.99 in 7.0 mi Calm Calm - N/A   Unknown
10:55 PM 68.0 °F 64.4 °F 88% 29.99 in 7.0 mi Calm Calm - N/A   Unknown
11:15 PM 68.0 °F 64.4 °F 88% 29.99 in 7.0 mi North 3.5 mph - N/A   Unknown
11:35 PM 68.0 °F 64.4 °F 88% 29.99 in 10.0 mi Calm Calm - N/A   Unknown
11:55 PM 68.0 °F 62.6 °F 83% 29.99 in 10.0 mi Calm Calm - N/A   Unknown